createdAt,value
2018-04-06T00:00:18.080Z,3.33
2018-04-06T00:02:43.935Z,3.77
2018-04-06T00:05:09.784Z,3.60
2018-04-06T00:07:35.650Z,3.30
2018-04-06T00:10:01.488Z,3.67
2018-04-06T00:12:27.367Z,3.20
2018-04-06T00:14:53.200Z,3.00
2018-04-06T00:17:19.064Z,3.97
2018-04-06T00:19:44.913Z,3.90
2018-04-06T00:22:10.759Z,3.60
2018-04-06T00:24:36.658Z,3.57
2018-04-06T00:27:02.507Z,3.13
2018-04-06T00:29:28.378Z,3.70
2018-04-06T00:31:54.216Z,3.30
2018-04-06T00:34:20.082Z,4.20
2018-04-06T00:36:45.969Z,3.73
2018-04-06T00:39:11.831Z,3.67
2018-04-06T00:41:37.705Z,3.60
2018-04-06T00:44:03.565Z,3.80
2018-04-06T00:46:29.417Z,3.30
2018-04-06T00:48:55.266Z,3.00
2018-04-06T00:51:21.645Z,3.60
2018-04-06T00:53:47.536Z,4.07
2018-04-06T00:56:13.399Z,3.83
2018-04-06T00:58:39.251Z,4.07
2018-04-06T01:01:05.110Z,3.80
2018-04-06T01:03:30.943Z,3.73
2018-04-06T01:05:56.816Z,3.70
2018-04-06T01:08:22.689Z,3.50
2018-04-06T01:10:48.529Z,3.10
2018-04-06T01:13:14.397Z,3.40
2018-04-06T01:15:40.233Z,3.07
2018-04-06T01:18:06.114Z,3.50
2018-04-06T01:20:31.970Z,3.73
2018-04-06T01:22:57.816Z,3.30
2018-04-06T01:25:23.689Z,3.60
2018-04-06T01:27:49.589Z,3.53
2018-04-06T01:30:15.445Z,3.37
2018-04-06T01:32:41.294Z,3.33
2018-04-06T01:35:07.169Z,3.73
2018-04-06T01:37:33.023Z,3.47
2018-04-06T01:39:58.882Z,4.07
2018-04-06T01:42:24.721Z,4.43
2018-04-06T01:44:50.612Z,3.37
2018-04-06T01:47:16.451Z,4.10
2018-04-06T01:49:42.313Z,3.57
2018-04-06T01:52:08.163Z,3.50
2018-04-06T01:54:34.007Z,2.90
2018-04-06T01:56:59.854Z,3.30
2018-04-06T01:59:25.720Z,3.63
2018-04-06T02:01:51.569Z,3.20
2018-04-06T02:04:17.417Z,3.13
2018-04-06T02:06:43.251Z,3.30
2018-04-06T02:09:09.087Z,3.10
2018-04-06T02:11:34.960Z,3.47
2018-04-06T02:14:00.793Z,3.33
2018-04-06T02:16:26.665Z,4.20
2018-04-06T02:18:52.511Z,3.60
2018-04-06T02:21:18.366Z,3.23
2018-04-06T02:23:44.210Z,3.73
2018-04-06T02:26:10.035Z,3.63
2018-04-06T02:28:35.875Z,3.23
2018-04-06T02:31:01.748Z,3.03
2018-04-06T02:33:27.625Z,2.70
2018-04-06T02:35:53.470Z,2.73
2018-04-06T02:38:19.312Z,2.73
2018-04-06T02:40:45.186Z,2.80
2018-04-06T02:43:11.032Z,3.00
2018-04-06T02:45:36.876Z,4.30
2018-04-06T02:48:02.748Z,3.27
2018-04-06T02:50:28.621Z,3.43
2018-04-06T02:52:54.463Z,4.03
2018-04-06T02:55:20.350Z,3.67
2018-04-06T02:57:46.206Z,3.43
2018-04-06T03:00:12.059Z,3.50
2018-04-06T03:02:37.897Z,3.03
2018-04-06T03:05:03.788Z,3.13
2018-04-06T03:07:29.649Z,3.23
2018-04-06T03:09:55.497Z,3.03
2018-04-06T03:12:21.368Z,3.00
2018-04-06T03:14:47.196Z,2.87
2018-04-06T03:17:13.051Z,3.17
2018-04-06T03:19:38.927Z,2.80
2018-04-06T03:22:04.783Z,3.17
2018-04-06T03:24:30.623Z,3.17
2018-04-06T03:26:56.504Z,3.00
2018-04-06T03:29:22.359Z,3.10
2018-04-06T03:31:48.225Z,4.13
2018-04-06T03:34:14.108Z,3.20
2018-04-06T03:36:39.942Z,2.83
2018-04-06T03:39:05.783Z,3.07
2018-04-06T03:41:31.630Z,2.60
2018-04-06T03:43:57.471Z,3.03
2018-04-06T03:46:23.303Z,3.20
2018-04-06T03:48:49.163Z,3.70
2018-04-06T03:51:15.028Z,2.70
2018-04-06T03:53:40.872Z,3.20
2018-04-06T03:56:06.726Z,2.90
2018-04-06T03:58:32.594Z,2.87
2018-04-06T04:00:58.465Z,2.90
2018-04-06T04:03:24.297Z,3.30
2018-04-06T04:05:50.132Z,2.70
2018-04-06T04:08:15.997Z,2.70
2018-04-06T04:10:41.861Z,2.67
2018-04-06T04:13:07.710Z,2.53
2018-04-06T04:15:33.683Z,2.97
2018-04-06T04:17:59.541Z,2.70
2018-04-06T04:20:25.379Z,2.70
2018-04-06T04:22:52.053Z,2.70
2018-04-06T04:25:17.905Z,2.60
2018-04-06T04:27:43.762Z,2.57
2018-04-06T04:30:09.611Z,2.83
2018-04-06T04:32:35.463Z,2.97
2018-04-06T04:35:01.316Z,3.37
2018-04-06T04:37:27.167Z,2.80
2018-04-06T04:39:53.030Z,3.10
2018-04-06T04:45:11.660Z,2.90
2018-04-06T04:47:37.639Z,3.00
2018-04-06T04:50:03.484Z,3.00
2018-04-06T04:52:29.333Z,2.73
2018-04-06T04:54:55.188Z,2.97
2018-04-06T04:57:21.027Z,3.40
2018-04-06T04:59:46.908Z,3.50
2018-04-06T05:02:12.755Z,3.20
2018-04-06T05:04:38.608Z,3.10
2018-04-06T05:07:04.488Z,2.90
2018-04-06T05:09:30.340Z,3.27
2018-04-06T05:11:56.206Z,3.20
2018-04-06T05:14:22.076Z,3.60
2018-04-06T05:16:47.945Z,3.17
2018-04-06T05:19:13.798Z,3.63
2018-04-06T05:21:39.636Z,3.93
2018-04-06T05:24:05.538Z,3.30
2018-04-06T05:26:31.382Z,3.60
2018-04-06T05:28:57.281Z,3.37
2018-04-06T05:31:23.143Z,3.90
2018-04-06T05:33:48.983Z,4.40
2018-04-06T05:36:14.853Z,4.30
2018-04-06T05:38:40.704Z,4.60
2018-04-06T05:41:06.556Z,5.00
2018-04-06T05:43:32.408Z,4.80
2018-04-06T05:45:58.274Z,4.03
2018-04-06T05:48:24.133Z,4.60
2018-04-06T05:50:50.006Z,4.10
2018-04-06T05:53:15.834Z,4.37
2018-04-06T05:55:41.665Z,5.13
2018-04-06T05:58:07.528Z,4.30
2018-04-06T06:00:33.398Z,4.73
2018-04-06T06:02:59.296Z,4.57
2018-04-06T06:05:25.202Z,4.70
2018-04-06T06:07:51.097Z,4.80
2018-04-06T06:10:16.953Z,4.03
2018-04-06T06:12:42.791Z,5.20
2018-04-06T06:15:08.641Z,5.27
2018-04-06T06:17:34.508Z,6.10
2018-04-06T06:20:00.344Z,5.27
2018-04-06T06:22:26.194Z,4.47
2018-04-06T06:24:52.035Z,4.20
2018-04-06T06:27:17.861Z,5.10
2018-04-06T06:29:43.720Z,5.63
2018-04-06T06:32:09.566Z,5.20
2018-04-06T06:34:35.436Z,4.20
2018-04-06T06:37:01.297Z,5.20
2018-04-06T06:39:27.126Z,5.50
2018-04-06T06:41:52.990Z,4.87
2018-04-06T06:44:18.835Z,4.57
2018-04-06T06:46:44.670Z,4.67
2018-04-06T06:49:10.521Z,3.70
2018-04-06T06:51:36.385Z,4.30
2018-04-06T06:54:02.242Z,4.17
2018-04-06T06:56:28.091Z,4.10
2018-04-06T06:58:53.940Z,4.00
2018-04-06T07:01:19.780Z,3.37
2018-04-06T07:03:45.640Z,4.20
2018-04-06T07:06:11.486Z,4.30
2018-04-06T07:08:37.369Z,3.57
2018-04-06T07:11:03.218Z,3.67
2018-04-06T07:13:29.089Z,4.10
2018-04-06T07:15:54.940Z,3.57
2018-04-06T07:21:13.572Z,4.30
2018-04-06T07:23:39.437Z,4.10
2018-04-06T07:26:05.329Z,3.63
2018-04-06T07:28:31.149Z,4.07
2018-04-06T07:30:57.009Z,3.87
2018-04-06T07:33:22.834Z,3.73
2018-04-06T07:35:48.692Z,3.87
2018-04-06T07:38:14.549Z,3.37
2018-04-06T07:40:40.457Z,3.50
2018-04-06T07:43:06.290Z,3.53
2018-04-06T07:45:32.128Z,3.20
2018-04-06T07:47:57.986Z,3.20
2018-04-06T07:50:23.841Z,3.50
2018-04-06T07:52:49.720Z,3.30
2018-04-06T07:55:15.569Z,3.63
2018-04-06T07:57:41.437Z,3.73
2018-04-06T08:00:07.278Z,3.87
2018-04-06T08:02:33.143Z,3.70
2018-04-06T08:04:58.980Z,3.07
2018-04-06T08:07:24.825Z,3.40
2018-04-06T08:09:50.685Z,3.80
2018-04-06T08:12:16.533Z,3.60
2018-04-06T08:14:42.404Z,3.60
2018-04-06T08:17:08.258Z,3.13
2018-04-06T08:19:34.106Z,3.57
2018-04-06T08:21:59.957Z,3.40
2018-04-06T08:24:25.822Z,3.10
2018-04-06T08:26:51.740Z,3.43
2018-04-06T08:29:17.606Z,3.90
2018-04-06T08:31:43.466Z,3.63
2018-04-06T08:34:09.298Z,3.20
2018-04-06T08:36:35.134Z,3.20
2018-04-06T08:39:00.960Z,2.77
2018-04-06T08:41:26.796Z,3.70
2018-04-06T08:43:52.610Z,3.10
2018-04-06T08:46:18.477Z,3.50
2018-04-06T08:48:44.333Z,2.90
2018-04-06T08:51:10.187Z,3.33
2018-04-06T08:53:36.019Z,3.70
2018-04-06T08:56:01.865Z,3.50
2018-04-06T08:58:27.708Z,3.50
2018-04-06T09:00:53.561Z,2.73
2018-04-06T09:03:19.435Z,2.80
2018-04-06T09:05:45.291Z,2.80
2018-04-06T09:08:11.149Z,2.40
2018-04-06T09:10:37.009Z,2.60
2018-04-06T09:13:02.857Z,3.20
2018-04-06T09:15:28.738Z,3.57
2018-04-06T09:17:54.616Z,3.70
2018-04-06T09:20:20.462Z,4.03
2018-04-06T09:22:46.321Z,2.83
2018-04-06T09:25:12.164Z,3.17
2018-04-06T09:27:38.021Z,2.70
2018-04-06T09:30:03.872Z,3.30
2018-04-06T09:32:29.728Z,3.47
2018-04-06T09:34:55.594Z,3.30
2018-04-06T09:37:21.446Z,4.20
2018-04-06T09:39:47.286Z,3.70
2018-04-06T09:42:13.133Z,3.40
2018-04-06T09:44:38.987Z,3.27
2018-04-06T09:47:04.831Z,3.10
2018-04-06T09:49:30.760Z,2.90
2018-04-06T09:51:56.605Z,3.20
2018-04-06T09:54:22.460Z,2.90
2018-04-06T09:56:48.308Z,3.33
2018-04-06T09:59:14.165Z,3.30
2018-04-06T10:01:40.062Z,2.50
2018-04-06T10:04:05.891Z,3.03
2018-04-06T10:06:31.745Z,2.70
2018-04-06T10:08:57.611Z,2.97
2018-04-06T10:11:23.468Z,2.30
2018-04-06T10:13:49.322Z,2.00
2018-04-06T10:16:15.182Z,1.73
2018-04-06T10:18:41.085Z,1.57
2018-04-06T10:21:06.921Z,1.87
2018-04-06T10:23:32.776Z,1.93
2018-04-06T10:25:58.628Z,2.50
2018-04-06T10:28:24.489Z,2.63
2018-04-06T10:30:50.347Z,2.27
2018-04-06T10:33:16.271Z,2.23
2018-04-06T10:35:42.087Z,2.30
2018-04-06T10:38:07.957Z,1.50
2018-04-06T10:40:33.903Z,1.93
2018-04-06T10:42:59.713Z,1.73
2018-04-06T10:45:25.567Z,1.40
2018-04-06T10:47:51.416Z,2.07
2018-04-06T10:50:17.289Z,1.80
2018-04-06T10:52:43.146Z,1.40
2018-04-06T10:55:09.022Z,1.50
2018-04-06T10:57:34.868Z,1.73
2018-04-06T11:00:00.714Z,1.83
2018-04-06T11:02:26.569Z,1.73
2018-04-06T11:04:52.422Z,1.87
2018-04-06T11:07:18.267Z,1.13
2018-04-06T11:09:44.118Z,1.30
2018-04-06T11:12:09.976Z,1.30
2018-04-06T11:14:35.832Z,1.60
2018-04-06T11:17:01.672Z,1.60
2018-04-06T11:19:27.519Z,1.40
2018-04-06T11:21:53.360Z,1.60
2018-04-06T11:24:19.236Z,2.00
2018-04-06T11:26:45.076Z,1.70
2018-04-06T11:29:10.945Z,1.93
2018-04-06T11:31:36.782Z,1.70
2018-04-06T11:34:02.642Z,1.73
2018-04-06T11:36:28.501Z,1.50
2018-04-06T11:38:54.357Z,1.90
2018-04-06T11:41:20.216Z,1.83
2018-04-06T11:43:46.049Z,1.43
2018-04-06T11:46:11.915Z,1.73
2018-04-06T11:48:37.748Z,1.43
2018-04-06T11:51:03.623Z,1.30
2018-04-06T11:53:29.457Z,1.47
2018-04-06T11:55:55.309Z,1.90
2018-04-06T11:58:21.179Z,1.53
2018-04-06T12:00:47.058Z,2.00
2018-04-06T12:03:13.007Z,1.27
2018-04-06T12:05:53.832Z,1.10
2018-04-06T12:08:19.693Z,1.07
2018-04-06T12:10:45.522Z,1.50
2018-04-06T12:13:11.398Z,1.47
2018-04-06T12:15:37.244Z,1.07
2018-04-06T12:18:03.156Z,1.27
2018-04-06T12:20:29.027Z,1.20
2018-04-06T12:22:54.887Z,1.10
2018-04-06T12:25:20.735Z,1.40
2018-04-06T12:27:46.615Z,1.23
2018-04-06T12:30:12.464Z,1.10
2018-04-06T12:32:38.299Z,1.20
2018-04-06T12:35:04.269Z,1.63
2018-04-06T12:37:30.484Z,1.70
2018-04-06T12:39:56.417Z,1.33
2018-04-06T12:42:22.269Z,1.30
2018-04-06T12:44:48.116Z,1.20
2018-04-06T12:47:14.007Z,1.30
2018-04-06T12:49:39.909Z,1.30
2018-04-06T12:52:05.762Z,1.23
2018-04-06T12:54:31.613Z,1.57
2018-04-06T12:56:57.507Z,1.70
2018-04-06T12:59:23.347Z,1.50
2018-04-06T13:01:49.729Z,1.70
2018-04-06T13:04:15.648Z,1.77
2018-04-06T13:06:41.527Z,1.60
2018-04-06T13:09:07.397Z,1.60
2018-04-06T13:11:33.268Z,1.77
2018-04-06T13:13:59.157Z,1.63
2018-04-06T13:16:25.024Z,2.10
2018-04-06T13:18:50.878Z,1.83
2018-04-06T13:21:16.786Z,1.83
2018-04-06T13:23:42.665Z,1.37
2018-04-06T13:26:08.595Z,1.93
2018-04-06T13:28:34.501Z,1.90
2018-04-06T13:31:00.374Z,2.00
2018-04-06T13:33:26.260Z,1.73
2018-04-06T13:35:52.099Z,2.13
2018-04-06T13:38:17.981Z,1.90
2018-04-06T13:40:43.855Z,2.10
2018-04-06T13:43:09.701Z,1.83
2018-04-06T13:45:35.594Z,2.10
2018-04-06T13:48:01.585Z,1.83
2018-04-06T13:50:27.504Z,2.03
2018-04-06T13:52:53.356Z,1.77
2018-04-06T13:55:19.214Z,1.90
2018-04-06T13:57:45.078Z,1.87
2018-04-06T14:00:10.987Z,2.07
2018-04-06T14:02:36.865Z,1.50
2018-04-06T14:05:02.752Z,1.77
2018-04-06T14:07:28.605Z,1.57
2018-04-06T14:09:54.749Z,1.77
2018-04-06T14:12:20.638Z,1.47
2018-04-06T14:14:46.633Z,1.90
2018-04-06T14:17:12.528Z,1.50
2018-04-06T14:19:38.400Z,1.77
2018-04-06T14:22:04.248Z,1.70
2018-04-06T14:24:30.113Z,1.60
2018-04-06T14:26:55.964Z,1.80
2018-04-06T14:29:21.821Z,1.70
2018-04-06T14:31:47.701Z,1.83
2018-04-06T14:34:13.566Z,1.90
2018-04-06T14:36:39.463Z,1.87
2018-04-06T14:39:05.351Z,1.83
2018-04-06T14:41:31.216Z,2.07
2018-04-06T14:43:57.064Z,1.83
2018-04-06T14:46:22.929Z,1.50
2018-04-06T14:48:48.819Z,1.80
2018-04-06T14:51:14.742Z,1.70
2018-04-06T14:53:40.606Z,1.83
2018-04-06T14:56:06.450Z,1.80
2018-04-06T14:58:32.507Z,2.37
2018-04-06T15:00:59.432Z,1.80
2018-04-06T15:03:25.445Z,1.70
2018-04-06T15:05:51.297Z,2.20
2018-04-06T15:08:17.202Z,1.80
2018-04-06T15:10:43.082Z,1.90
2018-04-06T15:13:08.950Z,2.20
2018-04-06T15:15:34.838Z,1.77
2018-04-06T15:18:00.720Z,2.10
2018-04-06T15:20:26.623Z,2.00
2018-04-06T15:22:52.500Z,2.20
2018-04-06T15:25:18.354Z,2.30
2018-04-06T15:27:44.232Z,2.13
2018-04-06T15:30:10.146Z,2.33
2018-04-06T15:32:36.024Z,2.80
2018-04-06T15:35:01.913Z,2.50
2018-04-06T15:37:27.742Z,2.60
2018-04-06T15:42:35.584Z,2.50
2018-04-06T15:45:01.471Z,2.53
2018-04-06T15:47:27.332Z,2.70
2018-04-06T15:49:53.205Z,2.60
2018-04-06T15:52:19.171Z,2.30
2018-04-06T15:54:45.009Z,2.53
2018-04-06T15:57:10.872Z,2.30
2018-04-06T15:59:36.768Z,2.37
2018-04-06T16:02:02.662Z,1.87
2018-04-06T16:04:28.540Z,2.20
2018-04-06T16:06:54.399Z,2.10
2018-04-06T16:09:20.268Z,2.10
2018-04-06T16:11:46.179Z,2.00
2018-04-06T16:14:12.068Z,1.93
2018-04-06T16:16:37.927Z,2.33
2018-04-06T16:19:03.803Z,2.40
2018-04-06T16:21:29.656Z,2.60
2018-04-06T16:23:55.567Z,2.50
2018-04-06T16:26:21.418Z,2.07
2018-04-06T16:28:47.254Z,2.50
2018-04-06T16:31:13.193Z,2.50
2018-04-06T16:33:39.073Z,2.50
2018-04-06T16:36:04.933Z,3.03
2018-04-06T16:38:30.778Z,2.70
2018-04-06T16:40:56.626Z,2.87
2018-04-06T16:43:22.510Z,3.07
2018-04-06T16:45:48.352Z,3.07
2018-04-06T16:48:14.244Z,2.57
2018-04-06T16:50:40.188Z,2.93
2018-04-06T16:53:06.421Z,2.50
2018-04-06T16:55:32.288Z,2.80
2018-04-06T16:57:58.182Z,2.77
2018-04-06T17:00:24.089Z,2.20
2018-04-06T17:02:49.935Z,2.50
2018-04-06T17:05:15.817Z,2.30
2018-04-06T17:07:41.721Z,2.70
2018-04-06T17:10:08.215Z,2.50
2018-04-06T17:12:34.071Z,2.50
2018-04-06T17:15:00.522Z,2.70
2018-04-06T17:17:26.382Z,2.63
2018-04-06T17:19:52.309Z,3.13
2018-04-06T17:22:18.270Z,2.43
2018-04-06T17:24:59.287Z,2.87
2018-04-06T17:27:25.221Z,2.70
2018-04-06T17:29:51.104Z,2.87
2018-04-06T17:32:17.024Z,2.67
2018-04-06T17:34:42.932Z,3.03
2018-04-06T17:37:09.078Z,2.60
2018-04-06T17:39:34.963Z,2.80
2018-04-06T17:42:00.840Z,2.50
2018-04-06T17:44:26.720Z,2.60
2018-04-06T17:46:52.626Z,2.27
2018-04-06T17:49:18.558Z,3.23
2018-04-06T17:51:44.493Z,3.07
2018-04-06T17:54:10.640Z,2.47
2018-04-06T17:56:36.543Z,2.40
2018-04-06T17:59:02.405Z,2.80
2018-04-06T18:01:28.331Z,2.47
2018-04-06T18:03:54.934Z,2.40
2018-04-06T18:06:20.807Z,3.20
2018-04-06T18:08:46.734Z,2.63
2018-04-06T18:11:12.734Z,3.10
2018-04-06T18:13:38.699Z,3.13
2018-04-06T18:16:04.622Z,3.17
2018-04-06T18:18:31.168Z,3.70
2018-04-06T18:20:57.080Z,3.27
2018-04-06T18:23:23.035Z,3.10
2018-04-06T18:25:48.943Z,3.13
2018-04-06T18:28:14.831Z,2.63
2018-04-06T18:30:40.742Z,2.63
2018-04-06T18:33:06.629Z,2.57
2018-04-06T18:35:32.540Z,2.70
2018-04-06T18:37:58.428Z,2.60
2018-04-06T18:40:24.351Z,2.73
2018-04-06T18:42:50.227Z,2.80
2018-04-06T18:45:16.083Z,2.53
2018-04-06T18:47:42.586Z,2.80
2018-04-06T18:50:08.477Z,2.70
2018-04-06T18:52:34.394Z,2.80
2018-04-06T18:55:00.310Z,2.70
2018-04-06T18:57:26.393Z,2.80
2018-04-06T18:59:52.300Z,2.87
2018-04-06T19:02:18.348Z,3.07
2018-04-06T19:04:44.320Z,3.30
2018-04-06T19:07:10.294Z,2.70
2018-04-06T19:09:52.031Z,3.30
2018-04-06T19:12:18.742Z,2.97
2018-04-06T19:14:44.717Z,3.17
2018-04-06T19:17:10.588Z,2.87
2018-04-06T19:19:36.544Z,3.50
2018-04-06T19:22:02.555Z,7.70
2018-04-06T19:24:28.629Z,4.40
2018-04-06T19:26:54.595Z,3.67
2018-04-06T19:29:20.517Z,3.30
2018-04-06T19:31:46.467Z,3.20
2018-04-06T19:34:12.460Z,3.07
2018-04-06T19:36:39.224Z,3.00
2018-04-06T19:39:05.182Z,2.80
2018-04-06T19:41:32.089Z,3.37
2018-04-06T19:43:58.090Z,3.20
2018-04-06T19:46:24.587Z,3.60
2018-04-06T19:48:51.386Z,3.43
2018-04-06T19:51:17.312Z,3.27
2018-04-06T19:53:43.205Z,3.70
2018-04-06T19:56:09.495Z,3.67
2018-04-06T19:58:36.172Z,3.30
2018-04-06T20:01:02.110Z,3.20
2018-04-06T20:03:27.999Z,3.80
2018-04-06T20:05:53.898Z,3.67
2018-04-06T20:08:19.820Z,3.53
2018-04-06T20:10:45.783Z,3.40
2018-04-06T20:13:11.978Z,3.40
2018-04-06T20:15:37.844Z,3.10
2018-04-06T20:18:03.811Z,3.20
2018-04-06T20:20:29.764Z,3.10
2018-04-06T20:22:55.692Z,3.30
2018-04-06T20:25:21.590Z,3.00
2018-04-06T20:27:47.442Z,3.90
2018-04-06T20:30:13.401Z,3.20
2018-04-06T20:32:39.275Z,2.93
2018-04-06T20:35:05.261Z,3.20
2018-04-06T20:37:31.168Z,3.20
2018-04-06T20:39:57.026Z,3.40
2018-04-06T20:42:22.891Z,2.90
2018-04-06T20:44:48.783Z,3.33
2018-04-06T20:47:14.717Z,3.30
2018-04-06T20:52:33.347Z,3.10
2018-04-06T20:54:59.227Z,3.53
2018-04-06T20:57:25.174Z,3.57
2018-04-06T20:59:51.089Z,3.30
2018-04-06T21:02:17.008Z,3.30
2018-04-06T21:04:42.903Z,3.77
2018-04-06T21:07:08.834Z,3.53
2018-04-06T21:09:35.557Z,3.40
2018-04-06T21:12:02.418Z,4.20
2018-04-06T21:14:28.347Z,3.57
2018-04-06T21:16:54.241Z,3.77
2018-04-06T21:19:20.157Z,3.37
2018-04-06T21:21:46.070Z,3.67
2018-04-06T21:24:11.941Z,3.57
2018-04-06T21:26:37.829Z,3.70
2018-04-06T21:29:03.709Z,3.80
2018-04-06T21:31:29.598Z,4.00
2018-04-06T21:33:55.523Z,3.80
2018-04-06T21:36:21.386Z,4.13
2018-04-06T21:38:47.257Z,3.77
2018-04-06T21:41:13.137Z,4.00
2018-04-06T21:43:39.002Z,3.50
2018-04-06T21:46:04.936Z,3.67
2018-04-06T21:48:30.859Z,3.70
2018-04-06T21:50:56.736Z,3.67
2018-04-06T21:53:22.596Z,3.60
2018-04-06T21:55:48.522Z,3.80
2018-04-06T21:58:14.448Z,3.17
2018-04-06T22:00:40.325Z,3.80
2018-04-06T22:03:06.206Z,3.53
2018-04-06T22:05:32.047Z,3.80
2018-04-06T22:07:57.939Z,3.77
2018-04-06T22:10:23.837Z,3.80
2018-04-06T22:12:49.710Z,3.43
2018-04-06T22:15:15.580Z,3.57
2018-04-06T22:17:41.442Z,3.50
2018-04-06T22:20:07.291Z,3.27
2018-04-06T22:22:33.157Z,2.90
2018-04-06T22:24:59.008Z,3.27
2018-04-06T22:27:24.851Z,3.10
2018-04-06T22:29:50.716Z,3.00
2018-04-06T22:32:16.569Z,2.70
2018-04-06T22:34:42.408Z,2.43
2018-04-06T22:37:08.269Z,2.63
2018-04-06T22:39:34.108Z,2.33
2018-04-06T22:41:59.971Z,2.67
2018-04-06T22:44:25.817Z,2.17
2018-04-06T22:46:51.686Z,2.40
2018-04-06T22:49:17.541Z,2.30
2018-04-06T22:51:43.389Z,3.10
2018-04-06T22:54:09.281Z,2.70
2018-04-06T22:56:35.114Z,2.47
2018-04-06T22:59:00.999Z,2.30
2018-04-06T23:01:26.847Z,2.63
2018-04-06T23:03:52.701Z,2.43
2018-04-06T23:06:18.576Z,2.50
2018-04-06T23:08:44.422Z,2.87
2018-04-06T23:11:10.292Z,2.73
2018-04-06T23:13:36.136Z,2.83
2018-04-06T23:16:01.982Z,2.80
2018-04-06T23:18:27.836Z,2.60
2018-04-06T23:20:53.701Z,2.73
2018-04-06T23:23:19.536Z,2.50
2018-04-06T23:25:45.390Z,2.80
2018-04-06T23:28:11.284Z,2.90
2018-04-06T23:30:37.140Z,2.73
2018-04-06T23:33:03.031Z,2.73
2018-04-06T23:35:28.875Z,3.00
2018-04-06T23:37:54.726Z,2.97
2018-04-06T23:40:20.604Z,3.07
2018-04-06T23:42:46.450Z,2.83
2018-04-06T23:45:12.322Z,2.77
2018-04-06T23:47:38.163Z,3.33
2018-04-06T23:50:04.023Z,3.30
2018-04-06T23:52:29.877Z,3.07
2018-04-06T23:54:55.739Z,3.30
2018-04-06T23:57:21.592Z,3.20
2018-04-06T23:59:47.449Z,2.93
